Time;durP1;ratioP1;P1;durP2;ratioP2;P2;SDS_P1;SDS_P2;PMS_P1;PMS_P2;Temp;Humidity;BMP_temperature;BMP_pressure;BME280_temperature;BME280_humidity;BME280_pressure;Samples;Min_cycle;Max_cycle;Signal;HPM_P1;HPM_P2
2021/01/25 00:02:23;;;;;;;3.38;2.75;;;0.90;99.90;;;;;;5059152;28;20028;-59
2021/01/25 00:04:48;;;;;;;3.85;2.95;;;0.90;99.90;;;;;;5064068;28;20510;-60
2021/01/25 00:07:14;;;;;;;3.17;2.40;;;1.00;99.90;;;;;;5058638;28;20029;-59
2021/01/25 00:09:40;;;;;;;5.20;3.15;;;1.00;99.90;;;;;;5057402;28;20398;-61
2021/01/25 00:12:05;;;;;;;4.85;3.53;;;1.00;99.90;;;;;;5050679;28;20044;-60
2021/01/25 00:14:31;;;;;;;5.82;4.38;;;1.00;99.90;;;;;;5060356;28;20028;-60
2021/01/25 00:16:56;;;;;;;7.68;4.05;;;1.00;99.90;;;;;;5060689;28;20098;-61
2021/01/25 00:19:22;;;;;;;6.75;4.75;;;1.00;99.90;;;;;;5058965;28;20036;-61
2021/01/25 00:21:48;;;;;;;8.38;5.53;;;0.90;99.90;;;;;;5056928;28;20116;-61
2021/01/25 00:24:13;;;;;;;8.70;5.75;;;1.00;99.90;;;;;;5049185;28;20021;-60
2021/01/25 00:26:39;;;;;;;7.90;5.05;;;1.00;99.90;;;;;;5037905;28;20595;-62
2021/01/25 00:29:05;;;;;;;8.55;5.85;;;1.00;99.90;;;;;;5035697;28;20108;-61
2021/01/25 00:31:30;;;;;;;10.65;6.55;;;1.00;99.90;;;;;;5037352;28;20088;-59
2021/01/25 00:33:56;;;;;;;9.23;6.72;;;1.10;99.90;;;;;;5031729;28;20044;-60
2021/01/25 00:36:22;;;;;;;8.80;6.30;;;1.10;99.90;;;;;;5035731;28;20124;-60
2021/01/25 00:38:47;;;;;;;10.02;7.28;;;1.10;99.90;;;;;;5037476;28;20025;-61
2021/01/25 00:41:13;;;;;;;10.93;7.55;;;1.10;99.90;;;;;;5057405;28;20522;-59
2021/01/25 00:43:39;;;;;;;9.20;6.80;;;1.10;99.90;;;;;;5051653;28;20068;-58
2021/01/25 00:46:04;;;;;;;10.02;7.38;;;1.00;99.90;;;;;;5031246;28;20056;-58
2021/01/25 00:48:30;;;;;;;10.23;7.65;;;1.00;99.90;;;;;;5038876;28;20531;-60
2021/01/25 00:50:56;;;;;;;9.80;6.75;;;1.10;99.90;;;;;;5032176;28;20025;-61
2021/01/25 00:53:21;;;;;;;10.98;7.10;;;1.10;99.90;;;;;;5043521;28;20079;-58
2021/01/25 00:55:47;;;;;;;9.07;7.38;;;1.10;99.90;;;;;;5046042;28;20563;-61
2021/01/25 00:58:12;;;;;;;10.20;6.97;;;1.10;99.90;;;;;;5048355;28;20075;-58
2021/01/25 01:00:38;;;;;;;8.70;6.25;;;1.10;99.90;;;;;;5047808;28;20502;-59
2021/01/25 01:03:04;;;;;;;8.85;5.03;;;1.10;99.90;;;;;;5042907;28;20036;-60
2021/01/25 01:05:29;;;;;;;9.18;6.43;;;1.00;99.90;;;;;;5041154;28;20745;-60
2021/01/25 01:07:55;;;;;;;9.10;5.68;;;1.00;99.90;;;;;;5047617;28;20021;-60
2021/01/25 01:10:21;;;;;;;7.15;5.57;;;1.00;99.90;;;;;;5050680;28;20028;-59
2021/01/25 01:12:46;;;;;;;8.45;6.28;;;1.00;99.90;;;;;;5047538;28;20394;-60
2021/01/25 01:15:13;;;;;;;8.00;5.90;;;1.00;99.90;;;;;;5045889;28;20056;-60
2021/01/25 01:17:42;;;;;;;7.43;5.78;;;1.00;99.90;;;;;;5036088;28;20031;-59
2021/01/25 01:20:10;;;;;;;8.23;6.22;;;1.00;99.90;;;;;;5033510;28;20136;-58
2021/01/25 01:22:36;;;;;;;7.28;6.20;;;1.00;99.90;;;;;;5034449;28;20528;-60
2021/01/25 01:25:03;;;;;;;8.45;6.35;;;1.00;99.90;;;;;;5034363;28;20021;-59
2021/01/25 01:27:29;;;;;;;9.75;7.15;;;1.00;99.90;;;;;;5037449;28;20029;-61
2021/01/25 01:29:55;;;;;;;9.70;6.93;;;1.10;99.90;;;;;;5035066;28;20082;-60
2021/01/25 01:32:20;;;;;;;11.35;7.18;;;1.10;99.90;;;;;;5060588;28;20399;-60
2021/01/25 01:34:46;;;;;;;11.25;8.23;;;1.00;99.90;;;;;;5050299;28;20028;-60
2021/01/25 01:37:12;;;;;;;9.23;7.18;;;1.00;99.90;;;;;;5053422;28;20039;-56
2021/01/25 01:39:37;;;;;;;8.95;7.03;;;1.10;99.90;;;;;;5041342;28;20021;-58
2021/01/25 01:42:04;;;;;;;8.45;6.57;;;1.10;99.90;;;;;;5053778;28;20031;-59
2021/01/25 01:44:30;;;;;;;9.48;7.50;;;1.10;99.90;;;;;;5051795;28;20033;-59
2021/01/25 01:46:56;;;;;;;9.10;7.47;;;1.10;99.90;;;;;;5048809;28;20048;-58
2021/01/25 01:49:21;;;;;;;8.45;6.85;;;1.20;99.90;;;;;;5054065;28;20028;-59
2021/01/25 01:51:47;;;;;;;8.85;7.25;;;1.10;99.90;;;;;;5053361;28;20032;-59
2021/01/25 01:54:14;;;;;;;8.55;6.65;;;1.10;99.90;;;;;;5054581;28;20017;-59
2021/01/25 01:56:39;;;;;;;9.38;7.25;;;1.10;99.90;;;;;;5050063;28;20518;-59
2021/01/25 01:59:05;;;;;;;7.28;6.45;;;1.10;99.90;;;;;;5051860;28;20096;-60
2021/01/25 02:01:31;;;;;;;9.48;6.75;;;1.10;99.90;;;;;;5052881;28;20017;-60
2021/01/25 02:03:58;;;;;;;8.85;7.10;;;1.10;99.90;;;;;;5060920;28;20128;-60
2021/01/25 02:06:25;;;;;;;7.47;6.47;;;1.10;99.90;;;;;;5059142;28;20486;-59
2021/01/25 02:08:52;;;;;;;8.55;6.45;;;1.10;99.90;;;;;;5057108;28;20080;-59
2021/01/25 02:11:18;;;;;;;8.07;7.28;;;1.10;99.90;;;;;;5052619;28;20043;-60
2021/01/25 02:13:45;;;;;;;7.80;6.60;;;1.20;99.90;;;;;;5049728;28;20498;-60
2021/01/25 02:16:11;;;;;;;7.50;6.47;;;1.10;99.90;;;;;;5058122;28;20506;-60
2021/01/25 02:18:37;;;;;;;8.75;7.07;;;1.10;99.90;;;;;;5053422;28;20032;-60
2021/01/25 02:21:05;;;;;;;7.78;6.28;;;1.10;99.90;;;;;;5055849;28;20031;-61
2021/01/25 02:23:57;;;;;;;7.05;6.32;;;1.00;99.90;;;;;;5051641;28;20025;-61
2021/01/25 02:26:34;;;;;;;8.10;6.40;;;1.00;99.90;;;;;;5052965;28;20047;-60
2021/01/25 02:29:01;;;;;;;8.45;6.40;;;1.00;99.90;;;;;;5057627;28;20029;-61
2021/01/25 02:31:27;;;;;;;9.63;6.78;;;1.00;99.90;;;;;;5052098;28;20049;-60
2021/01/25 02:33:55;;;;;;;6.63;5.75;;;1.00;99.90;;;;;;5042423;28;20040;-60
2021/01/25 02:36:23;;;;;;;7.15;6.45;;;1.10;99.90;;;;;;5052214;28;20466;-61
2021/01/25 02:38:51;;;;;;;7.50;6.65;;;1.10;99.90;;;;;;5054335;28;20547;-60
2021/01/25 02:41:22;;;;;;;9.65;6.72;;;1.10;99.90;;;;;;5052394;28;20021;-58
2021/01/25 02:43:49;;;;;;;11.48;7.47;;;1.00;99.90;;;;;;5044869;28;20028;-58
2021/01/25 02:46:15;;;;;;;8.10;6.85;;;1.00;99.90;;;;;;5063306;28;20028;-61
2021/01/25 02:48:41;;;;;;;8.95;6.97;;;1.00;99.90;;;;;;5056111;28;20063;-59
2021/01/25 02:51:07;;;;;;;8.25;6.93;;;1.00;99.90;;;;;;5053886;28;20057;-60
2021/01/25 02:53:32;;;;;;;9.63;6.70;;;1.00;99.90;;;;;;5053809;28;20023;-60
2021/01/25 02:56:00;;;;;;;11.00;7.47;;;1.00;99.90;;;;;;5064413;28;20021;-61
2021/01/25 02:58:25;;;;;;;7.95;6.97;;;1.00;99.90;;;;;;5060605;28;20078;-59
2021/01/25 03:00:52;;;;;;;7.25;6.40;;;1.00;99.90;;;;;;5054271;28;20021;-59
2021/01/25 03:03:19;;;;;;;9.77;7.45;;;1.00;99.90;;;;;;5052996;28;20078;-62
2021/01/25 03:05:46;;;;;;;8.75;6.95;;;1.00;99.90;;;;;;5053642;28;20020;-58
2021/01/25 03:08:12;;;;;;;8.93;7.15;;;1.00;99.90;;;;;;5057979;28;20242;-60
2021/01/25 03:10:38;;;;;;;8.77;7.50;;;1.00;99.90;;;;;;5056606;28;20020;-62
2021/01/25 03:13:04;;;;;;;8.68;6.78;;;1.00;99.90;;;;;;5054322;28;20028;-60
2021/01/25 03:15:34;;;;;;;8.30;6.60;;;1.00;99.90;;;;;;5054162;28;20040;-60
2021/01/25 03:17:59;;;;;;;9.48;7.03;;;1.00;99.90;;;;;;5056971;28;20035;-59
2021/01/25 03:20:25;;;;;;;8.50;7.07;;;1.00;99.90;;;;;;5063069;28;20017;-61
2021/01/25 03:22:51;;;;;;;8.25;6.53;;;1.00;99.90;;;;;;5055040;28;20035;-59
2021/01/25 03:25:17;;;;;;;10.68;7.03;;;1.00;99.90;;;;;;5051303;28;20446;-59
2021/01/25 03:27:42;;;;;;;7.90;6.43;;;1.00;99.90;;;;;;5052377;28;20032;-59
2021/01/25 03:30:13;;;;;;;7.10;5.90;;;1.00;99.90;;;;;;5057879;28;20035;-60
2021/01/25 03:32:39;;;;;;;6.85;5.50;;;1.00;99.90;;;;;;5055933;28;20449;-61
2021/01/25 03:35:05;;;;;;;6.88;5.32;;;1.00;99.90;;;;;;5054679;28;20029;-60
2021/01/25 03:37:32;;;;;;;6.93;5.45;;;1.00;99.90;;;;;;5053293;28;20029;-60
2021/01/25 03:39:58;;;;;;;6.50;5.07;;;1.00;99.90;;;;;;5053982;28;20032;-59
2021/01/25 03:42:24;;;;;;;5.22;4.72;;;1.00;99.90;;;;;;5059768;28;20029;-59
2021/01/25 03:44:50;;;;;;;7.47;5.65;;;1.00;99.90;;;;;;5057709;28;20079;-60
2021/01/25 03:47:15;;;;;;;6.45;4.85;;;1.00;99.90;;;;;;5054866;28;20029;-61
2021/01/25 03:49:41;;;;;;;7.10;5.40;;;1.00;99.90;;;;;;5052408;28;20491;-61
2021/01/25 03:52:06;;;;;;;5.78;5.10;;;1.00;99.90;;;;;;5057490;28;20116;-60
2021/01/25 03:54:32;;;;;;;6.38;5.35;;;1.00;99.90;;;;;;5063322;28;20032;-59
2021/01/25 03:56:57;;;;;;;6.57;5.60;;;1.00;99.90;;;;;;5056545;28;20021;-60
2021/01/25 03:59:23;;;;;;;6.15;4.63;;;1.00;99.90;;;;;;5055532;28;20090;-61
2021/01/25 04:01:50;;;;;;;5.63;4.75;;;1.00;99.90;;;;;;5054103;28;20032;-60
2021/01/25 04:04:15;;;;;;;7.45;5.13;;;0.90;99.90;;;;;;5066700;28;20025;-61
2021/01/25 04:06:41;;;;;;;6.38;5.22;;;0.90;99.90;;;;;;5059081;28;20568;-58
2021/01/25 04:09:06;;;;;;;6.85;5.10;;;0.90;99.90;;;;;;5054201;28;20036;-58
2021/01/25 04:11:33;;;;;;;6.40;5.40;;;0.90;99.90;;;;;;5054243;28;20027;-61
2021/01/25 04:13:59;;;;;;;5.72;4.75;;;0.90;99.90;;;;;;5055847;28;20073;-60
2021/01/25 04:16:24;;;;;;;7.35;6.35;;;0.90;99.90;;;;;;5065395;28;20037;-58
2021/01/25 04:18:51;;;;;;;8.68;6.93;;;0.90;99.90;;;;;;5069488;22;20048;-60
2021/01/25 04:21:17;;;;;;;6.60;5.95;;;0.80;99.90;;;;;;5047694;28;20416;-59
2021/01/25 04:23:42;;;;;;;8.93;6.47;;;0.80;99.90;;;;;;5048305;28;20028;-59
2021/01/25 04:26:10;;;;;;;9.27;7.57;;;0.80;99.90;;;;;;5048717;28;20075;-60
2021/01/25 04:28:35;;;;;;;8.85;7.20;;;0.80;99.90;;;;;;5047596;28;20017;-60
2021/01/25 04:31:01;;;;;;;9.50;8.30;;;0.80;99.90;;;;;;5049188;28;20035;-60
2021/01/25 04:33:27;;;;;;;12.45;9.05;;;0.80;99.90;;;;;;5048761;28;20104;-59
2021/01/25 04:35:52;;;;;;;11.13;8.18;;;0.80;99.90;;;;;;5041108;28;20021;-60
2021/01/25 04:38:18;;;;;;;11.93;8.35;;;0.80;99.90;;;;;;5048725;28;20029;-58
2021/01/25 04:40:43;;;;;;;10.48;8.27;;;0.80;99.90;;;;;;5038617;28;20487;-60
2021/01/25 04:43:10;;;;;;;10.73;8.73;;;0.70;99.90;;;;;;5030763;28;20500;-60
2021/01/25 04:45:35;;;;;;;11.65;8.07;;;0.70;99.90;;;;;;5028955;28;20109;-58
2021/01/25 04:48:02;;;;;;;11.50;8.48;;;0.80;99.90;;;;;;5028749;28;20445;-60
2021/01/25 04:50:29;;;;;;;12.60;9.23;;;0.80;99.90;;;;;;5029673;28;20120;-58
2021/01/25 04:52:56;;;;;;;10.98;8.10;;;0.80;99.90;;;;;;5048650;28;20017;-59
2021/01/25 04:55:22;;;;;;;11.82;8.38;;;0.80;99.90;;;;;;5030108;28;20009;-59
2021/01/25 04:57:48;;;;;;;10.60;7.72;;;0.80;99.90;;;;;;5030822;28;20419;-60
2021/01/25 05:00:18;;;;;;;11.25;8.70;;;0.80;99.90;;;;;;5030480;28;20036;-59
2021/01/25 05:02:44;;;;;;;10.82;7.90;;;0.80;99.90;;;;;;5027187;28;20022;-59
2021/01/25 05:05:10;;;;;;;11.43;8.48;;;0.80;99.90;;;;;;5028727;28;20075;-59
2021/01/25 05:07:37;;;;;;;12.73;9.15;;;0.90;99.90;;;;;;5030750;28;20072;-59
2021/01/25 05:10:06;;;;;;;14.57;9.52;;;0.80;99.90;;;;;;5032307;28;20021;-60
2021/01/25 05:12:47;;;;;;;11.77;8.80;;;0.80;99.90;;;;;;5030008;28;20056;-60
2021/01/25 05:15:34;;;;;;;11.43;8.75;;;0.90;99.90;;;;;;5030795;28;20039;-58
2021/01/25 05:18:21;;;;;;;11.20;8.73;;;0.80;99.90;;;;;;5028418;28;20072;-58
2021/01/25 05:20:53;;;;;;;14.20;8.80;;;0.90;99.90;;;;;;5028741;28;20026;-59
2021/01/25 05:23:18;;;;;;;12.13;8.73;;;0.90;99.90;;;;;;5047712;28;20056;-57
2021/01/25 05:25:44;;;;;;;11.57;8.48;;;0.90;99.90;;;;;;5041149;28;20045;-58
2021/01/25 05:28:20;;;;;;;12.05;9.35;;;0.90;99.90;;;;;;5030166;28;20037;-58
2021/01/25 05:30:46;;;;;;;11.45;8.48;;;0.80;99.90;;;;;;5033143;28;20030;-59
2021/01/25 05:33:12;;;;;;;12.13;8.85;;;0.90;99.90;;;;;;5033279;28;20052;-58
2021/01/25 05:35:38;;;;;;;16.40;10.63;;;0.90;99.90;;;;;;5035598;28;20049;-59
2021/01/25 05:38:06;;;;;;;13.25;10.07;;;0.90;99.90;;;;;;5036380;28;20071;-59
2021/01/25 05:40:34;;;;;;;15.40;10.77;;;0.90;99.90;;;;;;5049240;28;20108;-60
2021/01/25 05:42:59;;;;;;;14.75;9.20;;;0.90;99.90;;;;;;5051059;28;20025;-58
2021/01/25 05:45:28;;;;;;;15.02;9.82;;;0.90;99.90;;;;;;5052480;28;20098;-60
2021/01/25 05:47:56;;;;;;;14.95;9.77;;;0.90;99.90;;;;;;5052335;28;20053;-60
2021/01/25 05:50:32;;;;;;;14.25;10.70;;;0.80;99.90;;;;;;5042806;28;20051;-59
2021/01/25 05:53:00;;;;;;;13.27;8.52;;;0.80;99.90;;;;;;5049256;28;20020;-56
2021/01/25 05:55:26;;;;;;;15.45;10.02;;;0.80;99.90;;;;;;5052227;28;20033;-57
2021/01/25 05:57:52;;;;;;;14.00;9.82;;;0.80;99.90;;;;;;5051195;28;20025;-59
2021/01/25 06:00:18;;;;;;;13.02;9.35;;;0.80;99.90;;;;;;5050798;28;20028;-60
2021/01/25 06:02:48;;;;;;;15.02;9.88;;;0.80;99.90;;;;;;5051316;28;20025;-57
2021/01/25 06:05:28;;;;;;;15.57;9.88;;;0.80;99.90;;;;;;5050339;28;20060;-58
2021/01/25 06:08:13;;;;;;;15.20;10.77;;;0.80;99.90;;;;;;5051760;28;20060;-59
2021/01/25 06:10:58;;;;;;;13.05;8.73;;;0.90;99.90;;;;;;5055161;28;20037;-58
2021/01/25 06:13:31;;;;;;;14.88;9.60;;;0.80;99.90;;;;;;5051575;28;20426;-59
2021/01/25 06:15:58;;;;;;;15.13;10.52;;;0.80;99.90;;;;;;5050047;28;20108;-57
2021/01/25 06:18:23;;;;;;;12.77;9.20;;;0.80;99.90;;;;;;5051067;28;20446;-58
2021/01/25 06:20:54;;;;;;;15.73;9.63;;;0.80;99.90;;;;;;5045808;28;20025;-59
2021/01/25 06:23:20;;;;;;;12.32;9.40;;;0.80;99.90;;;;;;5038722;28;20052;-59
2021/01/25 06:25:47;;;;;;;11.73;8.57;;;0.80;99.90;;;;;;5045241;28;20060;-60
2021/01/25 06:28:14;;;;;;;12.85;9.43;;;0.80;99.90;;;;;;5051572;28;20036;-60
2021/01/25 06:30:43;;;;;;;13.52;9.98;;;0.80;99.90;;;;;;5051487;28;20025;-58
2021/01/25 06:33:13;;;;;;;14.48;9.30;;;0.80;99.90;;;;;;5050425;28;20029;-58
2021/01/25 06:35:39;;;;;;;15.52;9.63;;;0.80;99.90;;;;;;5051329;28;20594;-57
2021/01/25 06:38:13;;;;;;;12.40;8.63;;;0.80;99.90;;;;;;5051577;28;20096;-60
2021/01/25 06:40:42;;;;;;;14.18;9.88;;;0.80;99.90;;;;;;5048938;28;20060;-61
2021/01/25 06:43:10;;;;;;;14.98;10.35;;;0.80;99.90;;;;;;5043610;28;20013;-60
2021/01/25 06:45:37;;;;;;;16.00;10.90;;;0.80;99.90;;;;;;5051305;28;20029;-59
2021/01/25 06:48:06;;;;;;;14.82;10.98;;;0.70;99.90;;;;;;5044294;28;20021;-58
2021/01/25 06:50:31;;;;;;;11.60;8.93;;;0.80;99.90;;;;;;5033974;28;20033;-57
2021/01/25 06:52:57;;;;;;;12.27;9.05;;;0.80;99.90;;;;;;5042231;28;20025;-58
2021/01/25 06:55:23;;;;;;;13.27;9.18;;;0.80;99.90;;;;;;5055872;28;20130;-57
2021/01/25 06:57:49;;;;;;;12.95;8.90;;;0.80;99.90;;;;;;5051068;28;20025;-60
2021/01/25 07:00:19;;;;;;;14.07;9.70;;;0.80;99.90;;;;;;5043638;28;20044;-59
2021/01/25 07:02:57;;;;;;;14.60;9.93;;;0.80;99.90;;;;;;5050282;28;20390;-57
2021/01/25 07:05:33;;;;;;;14.88;9.90;;;0.80;99.90;;;;;;5037957;28;20052;-57
2021/01/25 07:08:26;;;;;;;14.95;9.70;;;0.80;99.90;;;;;;5050973;28;20032;-58
2021/01/25 07:10:57;;;;;;;13.00;9.43;;;0.80;99.90;;;;;;5049508;28;20028;-60
2021/01/25 07:13:25;;;;;;;12.95;9.70;;;0.80;99.90;;;;;;5050641;28;21096;-60
2021/01/25 07:15:51;;;;;;;14.32;10.32;;;0.80;99.90;;;;;;5046456;28;20076;-60
2021/01/25 07:18:18;;;;;;;14.23;9.88;;;0.80;99.90;;;;;;5045682;28;20044;-57
2021/01/25 07:20:48;;;;;;;17.30;10.02;;;0.80;99.90;;;;;;5050409;28;20202;-59
2021/01/25 07:23:19;;;;;;;15.00;10.48;;;0.80;99.90;;;;;;5042865;28;20127;-58
2021/01/25 07:25:46;;;;;;;15.55;10.77;;;0.80;99.90;;;;;;5037254;28;20446;-59
2021/01/25 07:28:12;;;;;;;13.75;10.23;;;0.80;99.90;;;;;;5050696;28;20033;-60
2021/01/25 07:30:38;;;;;;;17.13;11.10;;;0.80;99.90;;;;;;5050379;28;20086;-58
2021/01/25 07:33:03;;;;;;;17.25;11.02;;;0.80;99.90;;;;;;5047914;28;20021;-58
2021/01/25 07:35:29;;;;;;;18.10;10.75;;;0.80;99.90;;;;;;5040763;28;20096;-57
2021/01/25 07:37:55;;;;;;;15.25;10.63;;;0.90;99.90;;;;;;5049967;28;20067;-60
2021/01/25 07:40:24;;;;;;;16.08;11.45;;;0.80;99.90;;;;;;5045642;28;20029;-60
2021/01/25 07:42:52;;;;;;;16.50;11.43;;;0.80;99.90;;;;;;5039664;28;20024;-59
2021/01/25 07:45:17;;;;;;;13.82;10.00;;;0.80;99.90;;;;;;5050091;28;20020;-58
2021/01/25 07:47:46;;;;;;;15.10;9.88;;;0.80;99.90;;;;;;5034471;28;20384;-60
2021/01/25 07:50:13;;;;;;;16.13;11.23;;;0.80;99.90;;;;;;5030942;28;20025;-58
2021/01/25 07:52:39;;;;;;;15.85;11.15;;;0.80;99.90;;;;;;5033718;28;20034;-59
2021/01/25 07:55:15;;;;;;;15.00;10.65;;;0.80;99.90;;;;;;5035580;28;20085;-58
2021/01/25 07:57:41;;;;;;;15.43;10.30;;;0.70;99.90;;;;;;5046817;28;20020;-59
2021/01/25 08:00:23;;;;;;;14.43;10.85;;;0.70;99.90;;;;;;5048794;28;20514;-60
2021/01/25 08:03:05;;;;;;;16.33;10.55;;;0.70;99.90;;;;;;5047458;28;20605;-59
2021/01/25 08:05:31;;;;;;;17.73;11.57;;;0.70;99.90;;;;;;5044826;28;20104;-57
2021/01/25 08:07:57;;;;;;;15.25;11.15;;;0.70;99.90;;;;;;5048552;28;20048;-59
2021/01/25 08:10:23;;;;;;;18.42;12.05;;;0.70;99.90;;;;;;5058518;28;20078;-60
2021/01/25 08:12:49;;;;;;;17.23;11.63;;;0.70;99.90;;;;;;5047071;28;20052;-59
2021/01/25 08:15:23;;;;;;;16.63;11.57;;;0.70;99.90;;;;;;5048915;28;20455;-59
2021/01/25 08:18:02;;;;;;;18.02;11.02;;;0.70;99.90;;;;;;5049745;28;20029;-58
2021/01/25 08:20:33;;;;;;;16.33;10.68;;;0.70;99.90;;;;;;5049822;28;20104;-58
2021/01/25 08:23:20;;;;;;;19.73;11.70;;;0.70;99.90;;;;;;5042488;28;20408;-57
2021/01/25 08:26:12;;;;;;;;;;;0.70;99.90;;;;;;5027649;28;20029;-60
2021/01/25 08:28:45;;;;;;;14.07;8.95;;;0.70;99.90;;;;;;5045321;28;19955;-60
2021/01/25 08:31:17;;;;;;;13.02;8.88;;;0.70;99.90;;;;;;5045897;28;20074;-60
2021/01/25 08:34:05;;;;;;;13.65;9.20;;;0.70;99.90;;;;;;5049185;28;20422;-58
2021/01/25 08:36:35;;;;;;;14.05;9.07;;;0.70;99.90;;;;;;5034713;28;20021;-59
2021/01/25 08:39:17;;;;;;;15.05;9.25;;;0.70;99.90;;;;;;5043030;28;20107;-59
2021/01/25 08:42:03;;;;;;;13.52;9.70;;;0.80;99.90;;;;;;5048434;28;20025;-59
2021/01/25 08:44:28;;;;;;;11.57;8.48;;;0.80;99.90;;;;;;5044523;28;20396;-58
2021/01/25 08:47:05;;;;;;;12.82;8.25;;;0.70;99.90;;;;;;5047992;28;20040;-58
2021/01/25 08:49:35;;;;;;;;;;;0.80;99.90;;;;;;5049729;28;20025;-58
2021/01/25 08:52:39;;;;;;;13.40;8.80;;;0.70;99.90;;;;;;5043251;28;20295;-58
2021/01/25 08:55:25;;;;;;;15.25;9.90;;;0.70;99.90;;;;;;5029121;28;20079;-59
2021/01/25 08:57:53;;;;;;;15.48;9.70;;;0.70;99.90;;;;;;5031451;28;20017;-59
2021/01/25 09:00:27;;;;;;;17.25;10.38;;;0.80;99.90;;;;;;5030665;28;20029;-59
2021/01/25 09:03:05;;;;;;;13.77;10.05;;;0.80;99.90;;;;;;5030813;28;20036;-58
2021/01/25 09:05:31;;;;;;;14.75;9.45;;;0.80;99.90;;;;;;5027021;28;20411;-60
2021/01/25 09:07:58;;;;;;;15.07;10.15;;;0.80;99.90;;;;;;5026439;28;20533;-60
2021/01/25 09:10:24;;;;;;;16.88;10.40;;;0.80;99.90;;;;;;5030456;28;20022;-59
2021/01/25 09:12:50;;;;;;;15.40;9.00;;;0.80;99.90;;;;;;5030884;28;20040;-59
2021/01/25 09:15:17;;;;;;;11.65;8.55;;;0.70;99.90;;;;;;5045969;28;20558;-58
2021/01/25 09:17:42;;;;;;;13.95;8.98;;;0.80;99.90;;;;;;5042868;28;20044;-59
2021/01/25 09:20:09;;;;;;;13.70;8.63;;;0.80;99.90;;;;;;5032201;28;20438;-56
2021/01/25 09:22:35;;;;;;;16.27;10.27;;;0.80;99.90;;;;;;5046253;28;20029;-59
2021/01/25 09:25:02;;;;;;;16.27;10.48;;;0.80;99.90;;;;;;5032880;28;20087;-60
2021/01/25 09:27:28;;;;;;;19.27;9.80;;;0.80;99.90;;;;;;5048724;28;20063;-58
2021/01/25 09:29:53;;;;;;;27.98;11.52;;;0.80;99.90;;;;;;5048030;28;20064;-60
2021/01/25 09:32:19;;;;;;;25.00;12.02;;;0.80;99.90;;;;;;5041453;28;20033;-58
2021/01/25 09:34:45;;;;;;;17.70;10.65;;;0.70;99.90;;;;;;5037377;28;20037;-59
2021/01/25 09:37:12;;;;;;;17.17;11.07;;;0.80;99.90;;;;;;5040495;28;20630;-59
2021/01/25 09:39:38;;;;;;;15.63;10.63;;;0.80;99.90;;;;;;5047920;28;20045;-59
2021/01/25 09:42:05;;;;;;;17.05;12.15;;;0.80;99.90;;;;;;5048217;28;20082;-59
2021/01/25 09:44:33;;;;;;;16.60;11.10;;;0.80;99.90;;;;;;5047571;28;20082;-59
2021/01/25 09:46:59;;;;;;;17.58;10.85;;;0.80;99.90;;;;;;5047943;28;20037;-59
2021/01/25 09:49:25;;;;;;;15.75;9.85;;;0.90;99.90;;;;;;5047669;28;20462;-59
2021/01/25 09:51:50;;;;;;;13.88;9.25;;;0.90;99.90;;;;;;5041353;28;20483;-59
2021/01/25 09:54:17;;;;;;;14.30;9.50;;;1.00;99.90;;;;;;5041334;28;20059;-59
2021/01/25 09:56:43;;;;;;;12.55;9.32;;;1.00;99.90;;;;;;5046314;28;20427;-60
2021/01/25 09:59:08;;;;;;;14.02;9.13;;;1.00;99.90;;;;;;5045659;28;20104;-59
2021/01/25 10:01:34;;;;;;;13.52;8.77;;;1.00;99.90;;;;;;5047083;28;20021;-58
2021/01/25 10:03:59;;;;;;;12.75;8.52;;;1.00;99.90;;;;;;5045246;28;20033;-59
2021/01/25 10:06:28;;;;;;;15.68;9.15;;;1.00;99.90;;;;;;5034652;28;20594;-59
2021/01/25 10:08:54;;;;;;;12.95;8.40;;;1.00;99.90;;;;;;5047604;28;20047;-58
2021/01/25 10:11:19;;;;;;;14.02;8.50;;;1.00;99.90;;;;;;5045349;28;20266;-59
2021/01/25 10:13:45;;;;;;;12.30;8.70;;;1.00;99.90;;;;;;5047487;28;20044;-60
2021/01/25 10:16:10;;;;;;;11.45;8.45;;;1.00;99.90;;;;;;5047638;28;20021;-56
2021/01/25 10:18:36;;;;;;;12.30;8.50;;;1.10;99.90;;;;;;5049629;28;20083;-58
2021/01/25 10:21:02;;;;;;;13.32;9.85;;;1.00;99.90;;;;;;5051235;28;20025;-59
2021/01/25 10:23:28;;;;;;;12.32;9.63;;;1.00;99.90;;;;;;5042290;28;20025;-57
2021/01/25 10:25:54;;;;;;;14.85;9.50;;;1.00;99.90;;;;;;5040006;28;20047;-60
2021/01/25 10:28:20;;;;;;;13.07;9.05;;;1.10;99.90;;;;;;5051396;28;20648;-59
2021/01/25 10:30:46;;;;;;;16.48;10.02;;;1.10;99.90;;;;;;5038130;28;20021;-59
2021/01/25 10:33:12;;;;;;;15.80;9.43;;;1.10;99.90;;;;;;5051439;28;20684;-59
2021/01/25 10:35:38;;;;;;;14.68;10.27;;;1.20;99.90;;;;;;5051070;28;20106;-62
2021/01/25 10:40:31;;;;;;;13.32;9.65;;;1.20;99.90;;;;;;5029517;28;20384;-59
2021/01/25 10:42:57;;;;;;;18.88;10.88;;;1.20;99.90;;;;;;5030939;28;20087;-60
2021/01/25 10:45:23;;;;;;;13.68;10.18;;;1.30;99.90;;;;;;5031183;28;20079;-60
2021/01/25 10:47:49;;;;;;;15.75;10.30;;;1.30;99.90;;;;;;5035897;28;20029;-61
2021/01/25 10:50:15;;;;;;;14.35;10.27;;;1.30;99.90;;;;;;5050967;28;20029;-61
2021/01/25 10:52:40;;;;;;;16.25;11.18;;;1.40;99.90;;;;;;5050603;28;20099;-60
2021/01/25 10:55:07;;;;;;;13.98;9.82;;;1.30;99.90;;;;;;5049527;28;20556;-61
2021/01/25 10:57:36;;;;;;;13.90;9.77;;;1.40;99.90;;;;;;5050825;28;20021;-60
2021/01/25 11:00:05;;;;;;;16.58;10.02;;;1.40;99.90;;;;;;5051038;28;20386;-60
2021/01/25 11:02:30;;;;;;;13.63;9.65;;;1.40;99.90;;;;;;5050141;28;20036;-61
2021/01/25 11:04:56;;;;;;;15.70;9.35;;;1.50;99.90;;;;;;5050169;28;20025;-59
2021/01/25 11:07:21;;;;;;;14.52;9.60;;;1.50;99.90;;;;;;5050542;28;20036;-60
2021/01/25 11:09:47;;;;;;;13.77;8.55;;;1.50;99.90;;;;;;5050034;28;20491;-60
2021/01/25 11:12:13;;;;;;;12.52;9.13;;;1.50;99.90;;;;;;5050397;28;20036;-60
2021/01/25 11:14:38;;;;;;;10.65;7.50;;;1.50;99.90;;;;;;5049184;28;20029;-61
2021/01/25 11:17:04;;;;;;;14.65;8.60;;;1.50;99.90;;;;;;5050020;28;20025;-60
2021/01/25 11:19:29;;;;;;;12.90;9.23;;;1.50;99.90;;;;;;5050115;28;20479;-61
2021/01/25 11:21:55;;;;;;;15.85;9.23;;;1.60;99.90;;;;;;5048529;28;20108;-60
2021/01/25 11:24:21;;;;;;;14.32;9.77;;;1.60;99.90;;;;;;5049988;28;20090;-61
2021/01/25 11:26:46;;;;;;;13.45;9.13;;;1.60;99.90;;;;;;5049943;28;20083;-61
2021/01/25 11:29:15;;;;;;;14.90;8.30;;;1.60;99.90;;;;;;5049708;28;20074;-59
2021/01/25 11:31:40;;;;;;;12.95;8.02;;;1.60;99.90;;;;;;5050634;28;20522;-59
2021/01/25 11:34:06;;;;;;;11.90;8.10;;;1.60;99.90;;;;;;5050111;28;20029;-60
2021/01/25 11:36:32;;;;;;;9.45;7.38;;;1.60;99.90;;;;;;5049177;28;20025;-59
2021/01/25 11:38:57;;;;;;;8.48;6.75;;;1.70;99.90;;;;;;5048606;28;20124;-60
2021/01/25 11:41:23;;;;;;;9.75;7.97;;;1.70;99.90;;;;;;5050036;28;20025;-61
2021/01/25 11:43:48;;;;;;;9.80;6.90;;;1.80;99.90;;;;;;5050350;28;20024;-58
2021/01/25 11:46:14;;;;;;;12.98;7.50;;;1.90;99.90;;;;;;5050110;28;20021;-60
2021/01/25 11:48:40;;;;;;;9.63;6.47;;;1.90;99.90;;;;;;5048813;28;20025;-60
2021/01/25 11:51:05;;;;;;;10.75;7.70;;;1.80;99.90;;;;;;5050071;28;20104;-59
2021/01/25 11:53:31;;;;;;;13.73;7.70;;;1.80;99.90;;;;;;5050129;28;20017;-60
2021/01/25 11:55:58;;;;;;;10.15;7.82;;;1.80;99.90;;;;;;5048895;28;20021;-60
2021/01/25 11:58:23;;;;;;;12.52;8.27;;;1.70;99.90;;;;;;5049386;28;20411;-62
2021/01/25 12:00:49;;;;;;;9.98;6.97;;;1.70;99.90;;;;;;5048939;28;20013;-60
2021/01/25 12:03:14;;;;;;;9.07;6.38;;;1.70;99.90;;;;;;5049592;28;20036;-60
2021/01/25 12:05:40;;;;;;;9.85;7.22;;;1.60;99.90;;;;;;5049815;28;20394;-59
2021/01/25 12:08:05;;;;;;;8.10;7.30;;;1.70;99.90;;;;;;5049779;28;20028;-60
2021/01/25 12:10:31;;;;;;;8.27;7.05;;;1.60;99.90;;;;;;5048667;28;20024;-60
2021/01/25 12:12:57;;;;;;;8.32;6.82;;;1.70;99.90;;;;;;5049274;28;20025;-60
2021/01/25 12:15:22;;;;;;;10.70;8.02;;;1.60;99.90;;;;;;5049228;28;20021;-60
2021/01/25 12:17:48;;;;;;;9.20;6.78;;;1.60;99.90;;;;;;5049339;28;20039;-59
2021/01/25 12:20:15;;;;;;;9.00;6.95;;;1.70;99.90;;;;;;5049409;28;20036;-60
2021/01/25 12:22:41;;;;;;;10.30;7.38;;;1.80;99.90;;;;;;5049340;28;20041;-59
2021/01/25 12:25:07;;;;;;;9.60;6.68;;;1.80;99.90;;;;;;5047811;28;20053;-59
2021/01/25 12:27:32;;;;;;;9.57;7.45;;;1.80;99.90;;;;;;5049195;28;20025;-60
2021/01/25 12:29:58;;;;;;;13.30;7.95;;;1.80;99.90;;;;;;5047333;28;20387;-60
2021/01/25 12:32:24;;;;;;;11.60;7.63;;;1.90;99.90;;;;;;5048978;28;20021;-61
2021/01/25 12:34:50;;;;;;;12.80;7.72;;;1.80;99.90;;;;;;5048368;28;20035;-59
2021/01/25 12:37:16;;;;;;;8.38;7.03;;;1.80;99.90;;;;;;5047639;28;20019;-59
2021/01/25 12:39:42;;;;;;;10.93;7.45;;;1.90;99.90;;;;;;5047090;28;20087;-60
2021/01/25 12:42:08;;;;;;;11.52;8.18;;;1.90;99.90;;;;;;5046062;28;20037;-60
2021/01/25 12:44:35;;;;;;;16.08;11.35;;;1.90;99.90;;;;;;5045653;28;20025;-60
2021/01/25 12:47:01;;;;;;;13.82;9.23;;;1.90;99.90;;;;;;5046758;28;20017;-62
2021/01/25 12:49:27;;;;;;;20.13;15.63;;;1.90;99.90;;;;;;5046307;28;20017;-59
2021/01/25 12:51:54;;;;;;;35.40;25.40;;;1.90;99.90;;;;;;5047703;28;20070;-60
2021/01/25 12:54:20;;;;;;;17.25;12.73;;;1.90;99.90;;;;;;5048507;28;20028;-60